AirNav  
 
 729 users online  

2RR River Ranch Resort Airport
River Ranch, Florida, USA

GOING TO RIVER RANCH?


FAA INFORMATION EFFECTIVE 09 NOVEMBER 2017

Location

FAA Identifier: 2RR
Lat/Long: 27-46-45.6000N / 081-12-14.1000W
27-46.760000N / 081-12.235000W
27.7793333 / -81.2039167
(estimated)
Elevation: 55 ft. / 17 m (estimated)
Variation: 03W (1985)
Time zone: UTC -5 (UTC -4 during Daylight Saving Time)
Zip code: 33853

Airport Operations

Airport use: Open to the public
Control tower: no
ARTCC: MIAMI CENTER
FSS: SAINT PETERSBURG FLIGHT SERVICE STATION
NOTAMs facility: PIE (NOTAM-D service available)
Attendance: CONTINUOUS
Wind indicator: lighted
Segmented circle: no
Beacon: white-green (lighted land airport)
RDO-CTL

Airport Communications

CTAF/UNICOM: 122.8

Nearby radio navigation aids

VOR radial/distance  VOR name  Freq  Var
MLBr244/35.9MELBOURNE VOR/DME110.0007W
TRVr286/38.4TREASURE VORTAC117.3007W

 
NDB name  Hdg/Dist  Freq  Var  ID
SATELLITE240/32.925706WSQT ... --.- -

Airport Services

Fuel available: 100LL
Parking: tiedowns
Airframe service: NONE
Powerplant service: NONE

Runway Information

Runway 16/34

Dimensions: 4950 x 75 ft. / 1509 x 23 m
Surface: asphalt, in fair condition
Runway edge lights: non-standard
Runway edge markings: RY 16/34 THLD MARKINGS HAVE INCORRECT SPACING.
RUNWAY 16  RUNWAY 34
Latitude: 27-47.134500N27-46.386667N
Longitude: 081-12.420833W081-12.050500W
Traffic pattern: leftright
Displaced threshold: 200 ft.1000 ft.
Markings: basic, in poor conditionbasic, in poor condition
Obstructions: 38 ft. tree, 313 ft. from runway, 10 ft. right of centerline, 2:1 slope to clear
RY 16 APCH RATIO 20:1 TO DSPLCD THLD.
47 ft. tree, 445 ft. from runway, 45 ft. right of centerline, 5:1 slope to clear
RY 34 APCH RATIO 30:1 FROM DSPLCD THLD.

Airport Ownership and Management from official FAA records

Ownership: Privately-owned
Owner: WESTGATE RESORTS CENTRAL FL INVEST
PO BOX 30030
RIVER RANCH, FL 33867-0030
Phone 863-692-0727
CONTACT PERSON: BEATRIZ SALVATELLA 407-351-3350
Manager: BOB MOUNT
3600 RIVER RANCH BOULEVARD
RIVER RANCH, FL 33867-0030
Phone 863-692-1321

Additional Remarks

RWY 34 250' TOWER E 3000' SE OF RWY END E 2400' RT OF CL.
30 FT BRUSH & TREES 125 FT FROM CNTRLN BOTH SIDES OF RY.

Instrument Procedures

There are no published instrument procedures at 2RR.

Some nearby airports with instrument procedures:

KAVO - Avon Park Executive Airport (21 nm SW)
KSEF - Sebring Regional Airport (21 nm S)
X07 - Lake Wales Municipal Airport (23 nm W)
KBOW - Bartow Municipal Airport (32 nm W)
KISM - Kissimmee Gateway Airport (33 nm N)
 
Loc | Ops | Rwys | IFR | FBO | Links
Com | Nav | Svcs | Stats | Notes


 
Area around 2RR (River Ranch Resort Airport)
 
Road maps at: MapQuest Bing Google
 
Aerial photo
WARNING: Photo may not be current or correct
Aerial photo of 2RR (River Ranch Resort Airport)
Photo by Michael Ruperti
Photo taken 01-Aug-2009
from a Cessna 172 M.

Do you have a better or more recent aerial photo of River Ranch Resort Airport that you would like to share? If so, please send us your photo.

 
Sectional chart

 
Airport distance calculator
Flying to River Ranch Resort Airport? Find the distance to fly.

From to 2RR

Sunrise and sunset
Times for 19-Nov-2017
 Local
(UTC-5)
 Zulu
(UTC)
Morning civil twilight06:2511:25
Sunrise06:5011:50
Sunset17:3022:30
Evening civil twilight17:5522:55

Current date and time
Zulu (UTC)  20-Nov-2017 04:12:56
Local (UTC-5)  19-Nov-2017 23:12:56
 
METAR
KSEF 
21nm S 
200355Z AUTO 36008KT 10SM BKN025 21/18 A3001 RMK AO2 T02050175 402940141
KBOW 
31nm W 
200355Z AUTO 01012KT 10SM CLR 16/10 A3005 RMK AO2
KISM 
33nm N 
200356Z AUTO 01006KT 10SM CLR 17/08 A3006 RMK AO2 SLP181 T01670083 TSNO
KGIF 
34nm NW 
200353Z AUTO 01009KT 10SM CLR 16/10 A3006 RMK AO2 SLP176 T01610100
KMLB 
35nm NE 
200353Z 36015G22KT 10SM BKN032 21/13 A3001 RMK AO2 SLP163 T02060128
KOBE 
36nm SE 
200355Z AUTO 34011G14KT 10SM BKN010 OVC019 20/18 A3000 RMK AO2
X26 
38nm E 
SuperAWOS
192355Z AUTO 31005KT 10SM 23/22 A2992
KMCO 
39nm N 
200353Z 36012KT 10SM CLR 16/08 A3005 RMK AO2 SLP175 T01560078
TAF
KISM 
33nm N 
200118Z 2001/2024 34010KT P6SM SCT010 SCT025 TEMPO 2001/2003 BKN015 FM200300 36007KT P6SM SKC FM201600 07011KT P6SM SCT045
KMLB 
35nm NE 
200204Z 2002/2024 36012KT P6SM SCT015 BKN030 TEMPO 2002/2004 BKN015 FM200500 36010KT P6SM SKC FM201500 07014G20KT P6SM SCT040
KMCO 
39nm N 
200057Z 2001/2106 34010KT P6SM SCT017 BKN025 TEMPO 2001/2002 SCT025 FM200230 36007KT P6SM SKC FM201600 06012KT P6SM SCT045 FM210000 07006KT P6SM SCT040
NOTAMs
Click for the latest NOTAMs
NOTAMs are issued by the DoD/FAA and will open in a separate window not controlled by AirNav.

 

 
 

FBO, Fuel Providers, and Aircraft Ground Support

  
 Business Name 
 
 Contact 
 
 Services / Description 
 
Fuel Prices
 
Comments
  
Westgate River Ranch Aviation 863-692-2907
no information available

If you are affiliated with Westgate River Ranch Aviation and would like to show here your services, contact info, web link, logo, and more, click here
100LL
SS $3.99 
 Updated 30-Oct-2017
 
   write
SS=Self service
Update Fuel Prices
 

Would you like to see your business listed on this page?

 If your business provides an interesting product or service to pilots, flight crews, aircraft, or users of the River Ranch Resort Airport, you should consider listing it here.  To start the listing process, click on the button below
 
Add a business
 

Other Pages about River Ranch Resort Airport

www.westgatedestinations.com/...
 
Update a link
 
Copyright © AirNav, LLC. All rights reserved. Privacy Policy  Contact